Aeroporto :
LOGIN :

Iscrizione | Disclaimer

   EN    FR    IT 

 










Sommario :    VFR   VFR Marginale   IFR   IFR Intensivo   IFR Molto Intensivo
Visibilità : 
Base nubi : 
>= 8 km
>= 3000ft
5 / 8 km
1000 / 3000 ft
1500m / 5 km
500 / 1000 ft
800 / 1500m
200 / 500 ft
< 800m
< 200 ft
Simboli :   Temporali  Nebbia  Neve Forte  Precipitazioni Forti  Vento > 20 kt
SIGMETs :   Varie  Temporali  Ghiacco  Turbolenza  Onda orograficha  Ceneri Vulcaniche






- Altitudine del aeroporto : 97 ft
- Codice IATA : EBJ


EKEB - Esbjerg

ULTIMO METAR :
  • 180550Z AUTO 24020KT 9999 FEW030/// 05/01 Q1005

METARs OBSOLETI :
  • 180520Z AUTO 25018KT 9999 FEW027/// 05/02 Q1005
  • 180450Z AUTO 25019KT 9999 SCT031/// 06/02 Q1005
  • 180420Z AUTO 25019KT 9999 FEW023/// SCT040/// 06/02 Q1005
  • 180350Z AUTO 25018KT 9999 FEW025/// 06/03 Q1005
  • 180320Z AUTO 25020KT 9999 BKN023/// 06/03 Q1005

TAF TAF EKEB
Valido dal 18 a 06 ore il 18 a 15 ore UTC


180529Z 1806/1815 25018KT 9999 BKN020
TEMPO 1806/1809 25020G35KT 4000 SHRAGS BKN008 BKN020CB
TEMPO 1809/1815 25020G35KT -SHRA SCT020CB



MetMap, La meteo Aeronautica in un colpo d'occhio ! - Copyright ORBIFLY Dicembre 2007 - Disclaimer

ORBIFLY MET'MAP TEAM :

Programmazione e sviluppo : Alexandra Zaïnal
Concezione : Baudouin d'Aumeries
Aiuto per la programmazione : Marc-Olivier Méhu
Supporto tecnico e logistico : Manuel Goepfert
Aiuto per la traduzione : Arnaldo La Scala

Contatto : metmap@orbifly.com




FONTI E CREDITI :

   NOAA